<?xml version="1.0" encoding="UTF-8" standalone="no" ?>
<gpx xmlns="http://www.topografix.com/GPX/1/1" xmlns:xsi="http://www.w3.org/2001/XMLSchema-instance" xsi:schemaLocation="http://www.topografix.com/GPX/1/1 http://www.topografix.com/GPX/1/1/gpx.xsd" version="1.1" creator="VisuGPX - https://www.visugpx.com">
  <metadata>
    <name>Etape 3-3_Col de Peyresourde</name>
  </metadata>
  <trk>
    <name><![CDATA[Etape 3_Argelès Gazost_Bagnères de Luchon_114 kms_3519 D+]]></name>
    <extensions>
      <line xmlns="http://www.topografix.com/GPX/gpx_style/0/2">
        <color>0000FF</color>
        <width>4</width>
      </line>
    </extensions>
    <trkseg>
      <trkpt lat="42.90509" lon="0.35983">
        <ele>708</ele>
        <time>2021-08-20T19:39:24Z</time>
      </trkpt>
      <trkpt lat="42.90506" lon="0.35981">
        <ele>708</ele>
        <time>2021-08-20T19:39:25Z</time>
      </trkpt>
      <trkpt lat="42.90502" lon="0.35977">
        <ele>708</ele>
        <time>2021-08-20T19:39:25Z</time>
      </trkpt>
      <trkpt lat="42.905" lon="0.35975">
        <ele>708</ele>
        <time>2021-08-20T19:39:26Z</time>
      </trkpt>
      <trkpt lat="42.90484" lon="0.35956">
        <ele>708</ele>
        <time>2021-08-20T19:39:30Z</time>
      </trkpt>
      <trkpt lat="42.90482" lon="0.35953">
        <ele>708</ele>
        <time>2021-08-20T19:39:30Z</time>
      </trkpt>
      <trkpt lat="42.90479" lon="0.35949">
        <ele>708</ele>
        <time>2021-08-20T19:39:31Z</time>
      </trkpt>
      <trkpt lat="42.90448" lon="0.3599">
        <ele>710</ele>
        <time>2021-08-20T19:39:39Z</time>
      </trkpt>
      <trkpt lat="42.90438" lon="0.36009">
        <ele>710</ele>
        <time>2021-08-20T19:39:42Z</time>
      </trkpt>
      <trkpt lat="42.9043" lon="0.3601">
        <ele>710</ele>
        <time>2021-08-20T19:39:43Z</time>
      </trkpt>
      <trkpt lat="42.90414" lon="0.36035">
        <ele>710</ele>
        <time>2021-08-20T19:39:47Z</time>
      </trkpt>
      <trkpt lat="42.90398" lon="0.36006">
        <ele>712</ele>
        <time>2021-08-20T19:39:52Z</time>
      </trkpt>
      <trkpt lat="42.90386" lon="0.36019">
        <ele>712</ele>
        <time>2021-08-20T19:39:55Z</time>
      </trkpt>
      <trkpt lat="42.90352" lon="0.36039">
        <ele>714</ele>
        <time>2021-08-20T19:40:02Z</time>
      </trkpt>
      <trkpt lat="42.90311" lon="0.36073">
        <ele>717</ele>
        <time>2021-08-20T19:40:10Z</time>
      </trkpt>
      <trkpt lat="42.90271" lon="0.36095">
        <ele>719</ele>
        <time>2021-08-20T19:40:18Z</time>
      </trkpt>
      <trkpt lat="42.90241" lon="0.36136">
        <ele>719</ele>
        <time>2021-08-20T19:40:25Z</time>
      </trkpt>
      <trkpt lat="42.90237" lon="0.36139">
        <ele>719</ele>
        <time>2021-08-20T19:40:26Z</time>
      </trkpt>
      <trkpt lat="42.90202" lon="0.36157">
        <ele>722</ele>
        <time>2021-08-20T19:40:33Z</time>
      </trkpt>
      <trkpt lat="42.90172" lon="0.36175">
        <ele>724</ele>
        <time>2021-08-20T19:40:39Z</time>
      </trkpt>
      <trkpt lat="42.90138" lon="0.36199">
        <ele>727</ele>
        <time>2021-08-20T19:40:45Z</time>
      </trkpt>
      <trkpt lat="42.90098" lon="0.36264">
        <ele>726</ele>
        <time>2021-08-20T19:40:56Z</time>
      </trkpt>
      <trkpt lat="42.90034" lon="0.36334">
        <ele>728</ele>
        <time>2021-08-20T19:41:11Z</time>
      </trkpt>
      <trkpt lat="42.90005" lon="0.3636">
        <ele>730</ele>
        <time>2021-08-20T19:41:17Z</time>
      </trkpt>
      <trkpt lat="42.89964" lon="0.3639">
        <ele>734</ele>
        <time>2021-08-20T19:41:25Z</time>
      </trkpt>
      <trkpt lat="42.89951" lon="0.36402">
        <ele>734</ele>
        <time>2021-08-20T19:41:28Z</time>
      </trkpt>
      <trkpt lat="42.89921" lon="0.36443">
        <ele>735</ele>
        <time>2021-08-20T19:41:36Z</time>
      </trkpt>
      <trkpt lat="42.89903" lon="0.36478">
        <ele>736</ele>
        <time>2021-08-20T19:41:41Z</time>
      </trkpt>
      <trkpt lat="42.89866" lon="0.36562">
        <ele>743</ele>
        <time>2021-08-20T19:41:54Z</time>
      </trkpt>
      <trkpt lat="42.89858" lon="0.36567">
        <ele>745</ele>
        <time>2021-08-20T19:41:56Z</time>
      </trkpt>
      <trkpt lat="42.89851" lon="0.36567">
        <ele>747</ele>
        <time>2021-08-20T19:41:57Z</time>
      </trkpt>
      <trkpt lat="42.89836" lon="0.36561">
        <ele>753</ele>
        <time>2021-08-20T19:42:00Z</time>
      </trkpt>
      <trkpt lat="42.89822" lon="0.36596">
        <ele>755</ele>
        <time>2021-08-20T19:42:05Z</time>
      </trkpt>
      <trkpt lat="42.89806" lon="0.36635">
        <ele>757</ele>
        <time>2021-08-20T19:42:11Z</time>
      </trkpt>
      <trkpt lat="42.89798" lon="0.36651">
        <ele>758</ele>
        <time>2021-08-20T19:42:13Z</time>
      </trkpt>
      <trkpt lat="42.89747" lon="0.36729">
        <ele>763</ele>
        <time>2021-08-20T19:42:27Z</time>
      </trkpt>
      <trkpt lat="42.89733" lon="0.36754">
        <ele>765</ele>
        <time>2021-08-20T19:42:31Z</time>
      </trkpt>
      <trkpt lat="42.89712" lon="0.368">
        <ele>769</ele>
        <time>2021-08-20T19:42:38Z</time>
      </trkpt>
      <trkpt lat="42.89695" lon="0.36854">
        <ele>769</ele>
        <time>2021-08-20T19:42:46Z</time>
      </trkpt>
      <trkpt lat="42.89689" lon="0.36892">
        <ele>767</ele>
        <time>2021-08-20T19:42:51Z</time>
      </trkpt>
      <trkpt lat="42.89685" lon="0.36969">
        <ele>758</ele>
        <time>2021-08-20T19:43:01Z</time>
      </trkpt>
      <trkpt lat="42.89678" lon="0.36991">
        <ele>756</ele>
        <time>2021-08-20T19:43:04Z</time>
      </trkpt>
      <trkpt lat="42.89668" lon="0.37001">
        <ele>757</ele>
        <time>2021-08-20T19:43:06Z</time>
      </trkpt>
      <trkpt lat="42.89657" lon="0.37007">
        <ele>759</ele>
        <time>2021-08-20T19:43:08Z</time>
      </trkpt>
      <trkpt lat="42.89632" lon="0.37015">
        <ele>764</ele>
        <time>2021-08-20T19:43:13Z</time>
      </trkpt>
      <trkpt lat="42.89605" lon="0.37027">
        <ele>769</ele>
        <time>2021-08-20T19:43:18Z</time>
      </trkpt>
      <trkpt lat="42.89593" lon="0.37035">
        <ele>769</ele>
        <time>2021-08-20T19:43:20Z</time>
      </trkpt>
      <trkpt lat="42.89578" lon="0.37045">
        <ele>770</ele>
        <time>2021-08-20T19:43:23Z</time>
      </trkpt>
      <trkpt lat="42.89521" lon="0.37072">
        <ele>778</ele>
        <time>2021-08-20T19:43:34Z</time>
      </trkpt>
      <trkpt lat="42.89486" lon="0.37099">
        <ele>777</ele>
        <time>2021-08-20T19:43:41Z</time>
      </trkpt>
      <trkpt lat="42.89427" lon="0.37117">
        <ele>782</ele>
        <time>2021-08-20T19:43:52Z</time>
      </trkpt>
      <trkpt lat="42.8941" lon="0.37126">
        <ele>781</ele>
        <time>2021-08-20T19:43:55Z</time>
      </trkpt>
      <trkpt lat="42.89391" lon="0.37141">
        <ele>777</ele>
        <time>2021-08-20T19:43:59Z</time>
      </trkpt>
      <trkpt lat="42.89369" lon="0.37152">
        <ele>776</ele>
        <time>2021-08-20T19:44:03Z</time>
      </trkpt>
      <trkpt lat="42.89302" lon="0.37199">
        <ele>777</ele>
        <time>2021-08-20T19:44:17Z</time>
      </trkpt>
      <trkpt lat="42.89281" lon="0.37216">
        <ele>778</ele>
        <time>2021-08-20T19:44:21Z</time>
      </trkpt>
      <trkpt lat="42.8924" lon="0.37254">
        <ele>776</ele>
        <time>2021-08-20T19:44:30Z</time>
      </trkpt>
      <trkpt lat="42.89164" lon="0.37332">
        <ele>779</ele>
        <time>2021-08-20T19:44:47Z</time>
      </trkpt>
      <trkpt lat="42.89157" lon="0.37339">
        <ele>779</ele>
        <time>2021-08-20T19:44:48Z</time>
      </trkpt>
      <trkpt lat="42.8913" lon="0.37369">
        <ele>780</ele>
        <time>2021-08-20T19:44:55Z</time>
      </trkpt>
      <trkpt lat="42.89073" lon="0.37461">
        <ele>777</ele>
        <time>2021-08-20T19:45:10Z</time>
      </trkpt>
      <trkpt lat="42.89054" lon="0.37504">
        <ele>776</ele>
        <time>2021-08-20T19:45:17Z</time>
      </trkpt>
      <trkpt lat="42.89032" lon="0.37566">
        <ele>777</ele>
        <time>2021-08-20T19:45:26Z</time>
      </trkpt>
      <trkpt lat="42.89006" lon="0.37618">
        <ele>777</ele>
        <time>2021-08-20T19:45:34Z</time>
      </trkpt>
      <trkpt lat="42.88963" lon="0.37676">
        <ele>794</ele>
        <time>2021-08-20T19:45:45Z</time>
      </trkpt>
      <trkpt lat="42.88955" lon="0.37687">
        <ele>799</ele>
        <time>2021-08-20T19:45:47Z</time>
      </trkpt>
      <trkpt lat="42.8895" lon="0.3771">
        <ele>801</ele>
        <time>2021-08-20T19:45:50Z</time>
      </trkpt>
      <trkpt lat="42.88951" lon="0.37724">
        <ele>801</ele>
        <time>2021-08-20T19:45:52Z</time>
      </trkpt>
      <trkpt lat="42.88956" lon="0.37737">
        <ele>798</ele>
        <time>2021-08-20T19:45:54Z</time>
      </trkpt>
      <trkpt lat="42.88984" lon="0.37783">
        <ele>787</ele>
        <time>2021-08-20T19:46:01Z</time>
      </trkpt>
      <trkpt lat="42.89" lon="0.37805">
        <ele>783</ele>
        <time>2021-08-20T19:46:05Z</time>
      </trkpt>
      <trkpt lat="42.89011" lon="0.37828">
        <ele>786</ele>
        <time>2021-08-20T19:46:09Z</time>
      </trkpt>
      <trkpt lat="42.89016" lon="0.37864">
        <ele>789</ele>
        <time>2021-08-20T19:46:14Z</time>
      </trkpt>
      <trkpt lat="42.89015" lon="0.37874">
        <ele>790</ele>
        <time>2021-08-20T19:46:15Z</time>
      </trkpt>
      <trkpt lat="42.89008" lon="0.37896">
        <ele>790</ele>
        <time>2021-08-20T19:46:18Z</time>
      </trkpt>
      <trkpt lat="42.88981" lon="0.37924">
        <ele>792</ele>
        <time>2021-08-20T19:46:24Z</time>
      </trkpt>
      <trkpt lat="42.88961" lon="0.37936">
        <ele>793</ele>
        <time>2021-08-20T19:46:28Z</time>
      </trkpt>
      <trkpt lat="42.8886" lon="0.37994">
        <ele>793</ele>
        <time>2021-08-20T19:46:48Z</time>
      </trkpt>
      <trkpt lat="42.88819" lon="0.38011">
        <ele>798</ele>
        <time>2021-08-20T19:46:55Z</time>
      </trkpt>
      <trkpt lat="42.88796" lon="0.38025">
        <ele>802</ele>
        <time>2021-08-20T19:47:00Z</time>
      </trkpt>
      <trkpt lat="42.88786" lon="0.38036">
        <ele>802</ele>
        <time>2021-08-20T19:47:02Z</time>
      </trkpt>
      <trkpt lat="42.88778" lon="0.38055">
        <ele>798</ele>
        <time>2021-08-20T19:47:05Z</time>
      </trkpt>
      <trkpt lat="42.8877" lon="0.38089">
        <ele>791</ele>
        <time>2021-08-20T19:47:10Z</time>
      </trkpt>
      <trkpt lat="42.88759" lon="0.3818">
        <ele>787</ele>
        <time>2021-08-20T19:47:22Z</time>
      </trkpt>
      <trkpt lat="42.88751" lon="0.38205">
        <ele>788</ele>
        <time>2021-08-20T19:47:25Z</time>
      </trkpt>
      <trkpt lat="42.88734" lon="0.38231">
        <ele>793</ele>
        <time>2021-08-20T19:47:30Z</time>
      </trkpt>
      <trkpt lat="42.8871" lon="0.38257">
        <ele>796</ele>
        <time>2021-08-20T19:47:35Z</time>
      </trkpt>
      <trkpt lat="42.88695" lon="0.38285">
        <ele>798</ele>
        <time>2021-08-20T19:47:40Z</time>
      </trkpt>
      <trkpt lat="42.88684" lon="0.38304">
        <ele>799</ele>
        <time>2021-08-20T19:47:43Z</time>
      </trkpt>
      <trkpt lat="42.88668" lon="0.38335">
        <ele>798</ele>
        <time>2021-08-20T19:47:48Z</time>
      </trkpt>
      <trkpt lat="42.88644" lon="0.38392">
        <ele>802</ele>
        <time>2021-08-20T19:47:56Z</time>
      </trkpt>
      <trkpt lat="42.88612" lon="0.38478">
        <ele>805</ele>
        <time>2021-08-20T19:48:09Z</time>
      </trkpt>
      <trkpt lat="42.886" lon="0.38497">
        <ele>804</ele>
        <time>2021-08-20T19:48:12Z</time>
      </trkpt>
      <trkpt lat="42.88579" lon="0.3852">
        <ele>805</ele>
        <time>2021-08-20T19:48:17Z</time>
      </trkpt>
      <trkpt lat="42.88549" lon="0.38541">
        <ele>807</ele>
        <time>2021-08-20T19:48:23Z</time>
      </trkpt>
      <trkpt lat="42.88487" lon="0.38577">
        <ele>805</ele>
        <time>2021-08-20T19:48:35Z</time>
      </trkpt>
      <trkpt lat="42.88432" lon="0.38606">
        <ele>810</ele>
        <time>2021-08-20T19:48:45Z</time>
      </trkpt>
      <trkpt lat="42.88416" lon="0.38617">
        <ele>811</ele>
        <time>2021-08-20T19:48:49Z</time>
      </trkpt>
      <trkpt lat="42.88401" lon="0.38633">
        <ele>812</ele>
        <time>2021-08-20T19:48:52Z</time>
      </trkpt>
      <trkpt lat="42.88328" lon="0.38731">
        <ele>816</ele>
        <time>2021-08-20T19:49:10Z</time>
      </trkpt>
      <trkpt lat="42.88302" lon="0.38763">
        <ele>816</ele>
        <time>2021-08-20T19:49:16Z</time>
      </trkpt>
      <trkpt lat="42.88291" lon="0.38773">
        <ele>817</ele>
        <time>2021-08-20T19:49:19Z</time>
      </trkpt>
      <trkpt lat="42.88253" lon="0.38793">
        <ele>817</ele>
        <time>2021-08-20T19:49:26Z</time>
      </trkpt>
      <trkpt lat="42.88165" lon="0.38852">
        <ele>827</ele>
        <time>2021-08-20T19:49:44Z</time>
      </trkpt>
      <trkpt lat="42.88141" lon="0.38864">
        <ele>831</ele>
        <time>2021-08-20T19:49:48Z</time>
      </trkpt>
      <trkpt lat="42.88114" lon="0.38875">
        <ele>835</ele>
        <time>2021-08-20T19:49:53Z</time>
      </trkpt>
      <trkpt lat="42.88084" lon="0.38884">
        <ele>839</ele>
        <time>2021-08-20T19:49:59Z</time>
      </trkpt>
      <trkpt lat="42.8801" lon="0.38892">
        <ele>847</ele>
        <time>2021-08-20T19:50:12Z</time>
      </trkpt>
      <trkpt lat="42.8799" lon="0.38898">
        <ele>848</ele>
        <time>2021-08-20T19:50:15Z</time>
      </trkpt>
      <trkpt lat="42.87885" lon="0.38955">
        <ele>847</ele>
        <time>2021-08-20T19:50:35Z</time>
      </trkpt>
      <trkpt lat="42.87852" lon="0.38967">
        <ele>844</ele>
        <time>2021-08-20T19:50:42Z</time>
      </trkpt>
      <trkpt lat="42.8783" lon="0.38967">
        <ele>845</ele>
        <time>2021-08-20T19:50:45Z</time>
      </trkpt>
      <trkpt lat="42.878" lon="0.38958">
        <ele>852</ele>
        <time>2021-08-20T19:50:51Z</time>
      </trkpt>
      <trkpt lat="42.87792" lon="0.3896">
        <ele>853</ele>
        <time>2021-08-20T19:50:52Z</time>
      </trkpt>
      <trkpt lat="42.87785" lon="0.38966">
        <ele>851</ele>
        <time>2021-08-20T19:50:54Z</time>
      </trkpt>
      <trkpt lat="42.87777" lon="0.38978">
        <ele>847</ele>
        <time>2021-08-20T19:50:56Z</time>
      </trkpt>
      <trkpt lat="42.87737" lon="0.39064">
        <ele>837</ele>
        <time>2021-08-20T19:51:09Z</time>
      </trkpt>
      <trkpt lat="42.87724" lon="0.39081">
        <ele>836</ele>
        <time>2021-08-20T19:51:12Z</time>
      </trkpt>
      <trkpt lat="42.87711" lon="0.39091">
        <ele>836</ele>
        <time>2021-08-20T19:51:15Z</time>
      </trkpt>
      <trkpt lat="42.87696" lon="0.39096">
        <ele>837</ele>
        <time>2021-08-20T19:51:18Z</time>
      </trkpt>
      <trkpt lat="42.87665" lon="0.39098">
        <ele>837</ele>
        <time>2021-08-20T19:51:23Z</time>
      </trkpt>
      <trkpt lat="42.8766" lon="0.391">
        <ele>838</ele>
        <time>2021-08-20T19:51:24Z</time>
      </trkpt>
      <trkpt lat="42.87654" lon="0.39103">
        <ele>838</ele>
        <time>2021-08-20T19:51:25Z</time>
      </trkpt>
      <trkpt lat="42.8764" lon="0.39116">
        <ele>839</ele>
        <time>2021-08-20T19:51:28Z</time>
      </trkpt>
      <trkpt lat="42.87627" lon="0.39134">
        <ele>840</ele>
        <time>2021-08-20T19:51:32Z</time>
      </trkpt>
      <trkpt lat="42.87613" lon="0.39154">
        <ele>839</ele>
        <time>2021-08-20T19:51:35Z</time>
      </trkpt>
      <trkpt lat="42.87576" lon="0.39191">
        <ele>840</ele>
        <time>2021-08-20T19:51:44Z</time>
      </trkpt>
      <trkpt lat="42.87531" lon="0.39231">
        <ele>843</ele>
        <time>2021-08-20T19:51:53Z</time>
      </trkpt>
      <trkpt lat="42.87493" lon="0.39256">
        <ele>845</ele>
        <time>2021-08-20T19:52:01Z</time>
      </trkpt>
      <trkpt lat="42.87459" lon="0.39271">
        <ele>849</ele>
        <time>2021-08-20T19:52:07Z</time>
      </trkpt>
      <trkpt lat="42.87409" lon="0.39298">
        <ele>851</ele>
        <time>2021-08-20T19:52:17Z</time>
      </trkpt>
      <trkpt lat="42.874" lon="0.39302">
        <ele>850</ele>
        <time>2021-08-20T19:52:18Z</time>
      </trkpt>
      <trkpt lat="42.87379" lon="0.39309">
        <ele>850</ele>
        <time>2021-08-20T19:52:22Z</time>
      </trkpt>
      <trkpt lat="42.87348" lon="0.39317">
        <ele>851</ele>
        <time>2021-08-20T19:52:28Z</time>
      </trkpt>
      <trkpt lat="42.87344" lon="0.39318">
        <ele>851</ele>
        <time>2021-08-20T19:52:28Z</time>
      </trkpt>
      <trkpt lat="42.87214" lon="0.39358">
        <ele>854</ele>
        <time>2021-08-20T19:52:52Z</time>
      </trkpt>
      <trkpt lat="42.87199" lon="0.39363">
        <ele>854</ele>
        <time>2021-08-20T19:52:55Z</time>
      </trkpt>
      <trkpt lat="42.8719" lon="0.39366">
        <ele>855</ele>
        <time>2021-08-20T19:52:56Z</time>
      </trkpt>
      <trkpt lat="42.87184" lon="0.39367">
        <ele>855</ele>
        <time>2021-08-20T19:52:58Z</time>
      </trkpt>
      <trkpt lat="42.87169" lon="0.39375">
        <ele>855</ele>
        <time>2021-08-20T19:53:00Z</time>
      </trkpt>
      <trkpt lat="42.87159" lon="0.39386">
        <ele>855</ele>
        <time>2021-08-20T19:53:03Z</time>
      </trkpt>
      <trkpt lat="42.87151" lon="0.39399">
        <ele>855</ele>
        <time>2021-08-20T19:53:05Z</time>
      </trkpt>
      <trkpt lat="42.87135" lon="0.39438">
        <ele>855</ele>
        <time>2021-08-20T19:53:11Z</time>
      </trkpt>
      <trkpt lat="42.87126" lon="0.3946">
        <ele>855</ele>
        <time>2021-08-20T19:53:14Z</time>
      </trkpt>
      <trkpt lat="42.87107" lon="0.39511">
        <ele>854</ele>
        <time>2021-08-20T19:53:22Z</time>
      </trkpt>
      <trkpt lat="42.87087" lon="0.39566">
        <ele>853</ele>
        <time>2021-08-20T19:53:30Z</time>
      </trkpt>
      <trkpt lat="42.87084" lon="0.39579">
        <ele>853</ele>
        <time>2021-08-20T19:53:31Z</time>
      </trkpt>
      <trkpt lat="42.87074" lon="0.39602">
        <ele>854</ele>
        <time>2021-08-20T19:53:35Z</time>
      </trkpt>
      <trkpt lat="42.87061" lon="0.39625">
        <ele>855</ele>
        <time>2021-08-20T19:53:39Z</time>
      </trkpt>
      <trkpt lat="42.87037" lon="0.39647">
        <ele>855</ele>
        <time>2021-08-20T19:53:44Z</time>
      </trkpt>
      <trkpt lat="42.87026" lon="0.3965">
        <ele>854</ele>
        <time>2021-08-20T19:53:46Z</time>
      </trkpt>
      <trkpt lat="42.87015" lon="0.39653">
        <ele>854</ele>
        <time>2021-08-20T19:53:48Z</time>
      </trkpt>
      <trkpt lat="42.86927" lon="0.39652">
        <ele>853</ele>
        <time>2021-08-20T19:54:03Z</time>
      </trkpt>
      <trkpt lat="42.86862" lon="0.39647">
        <ele>854</ele>
        <time>2021-08-20T19:54:15Z</time>
      </trkpt>
      <trkpt lat="42.86843" lon="0.3965">
        <ele>854</ele>
        <time>2021-08-20T19:54:18Z</time>
      </trkpt>
      <trkpt lat="42.86816" lon="0.39664">
        <ele>856</ele>
        <time>2021-08-20T19:54:23Z</time>
      </trkpt>
      <trkpt lat="42.8679" lon="0.39685">
        <ele>858</ele>
        <time>2021-08-20T19:54:29Z</time>
      </trkpt>
      <trkpt lat="42.86772" lon="0.39707">
        <ele>858</ele>
        <time>2021-08-20T19:54:33Z</time>
      </trkpt>
      <trkpt lat="42.86759" lon="0.39737">
        <ele>857</ele>
        <time>2021-08-20T19:54:38Z</time>
      </trkpt>
      <trkpt lat="42.8675" lon="0.39785">
        <ele>856</ele>
        <time>2021-08-20T19:54:44Z</time>
      </trkpt>
      <trkpt lat="42.86742" lon="0.39866">
        <ele>855</ele>
        <time>2021-08-20T19:54:55Z</time>
      </trkpt>
      <trkpt lat="42.86736" lon="0.39886">
        <ele>855</ele>
        <time>2021-08-20T19:54:58Z</time>
      </trkpt>
      <trkpt lat="42.86723" lon="0.39906">
        <ele>855</ele>
        <time>2021-08-20T19:55:01Z</time>
      </trkpt>
      <trkpt lat="42.86672" lon="0.39958">
        <ele>856</ele>
        <time>2021-08-20T19:55:12Z</time>
      </trkpt>
      <trkpt lat="42.86626" lon="0.39997">
        <ele>861</ele>
        <time>2021-08-20T19:55:22Z</time>
      </trkpt>
      <trkpt lat="42.86613" lon="0.40011">
        <ele>863</ele>
        <time>2021-08-20T19:55:25Z</time>
      </trkpt>
      <trkpt lat="42.86549" lon="0.40099">
        <ele>861</ele>
        <time>2021-08-20T19:55:41Z</time>
      </trkpt>
      <trkpt lat="42.86531" lon="0.40115">
        <ele>861</ele>
        <time>2021-08-20T19:55:45Z</time>
      </trkpt>
      <trkpt lat="42.86512" lon="0.40124">
        <ele>861</ele>
        <time>2021-08-20T19:55:49Z</time>
      </trkpt>
      <trkpt lat="42.86424" lon="0.40124">
        <ele>864</ele>
        <time>2021-08-20T19:56:04Z</time>
      </trkpt>
      <trkpt lat="42.8638" lon="0.40131">
        <ele>866</ele>
        <time>2021-08-20T19:56:12Z</time>
      </trkpt>
      <trkpt lat="42.86362" lon="0.40132">
        <ele>867</ele>
        <time>2021-08-20T19:56:15Z</time>
      </trkpt>
      <trkpt lat="42.86341" lon="0.4013">
        <ele>869</ele>
        <time>2021-08-20T19:56:19Z</time>
      </trkpt>
      <trkpt lat="42.86292" lon="0.40118">
        <ele>874</ele>
        <time>2021-08-20T19:56:28Z</time>
      </trkpt>
      <trkpt lat="42.86268" lon="0.40117">
        <ele>875</ele>
        <time>2021-08-20T19:56:32Z</time>
      </trkpt>
      <trkpt lat="42.86227" lon="0.40118">
        <ele>878</ele>
        <time>2021-08-20T19:56:40Z</time>
      </trkpt>
      <trkpt lat="42.86203" lon="0.40127">
        <ele>878</ele>
        <time>2021-08-20T19:56:44Z</time>
      </trkpt>
      <trkpt lat="42.86192" lon="0.40133">
        <ele>878</ele>
        <time>2021-08-20T19:56:46Z</time>
      </trkpt>
      <trkpt lat="42.86179" lon="0.40143">
        <ele>877</ele>
        <time>2021-08-20T19:56:49Z</time>
      </trkpt>
      <trkpt lat="42.86155" lon="0.4017">
        <ele>875</ele>
        <time>2021-08-20T19:56:54Z</time>
      </trkpt>
      <trkpt lat="42.86132" lon="0.40204">
        <ele>878</ele>
        <time>2021-08-20T19:57:00Z</time>
      </trkpt>
      <trkpt lat="42.86102" lon="0.40255">
        <ele>879</ele>
        <time>2021-08-20T19:57:09Z</time>
      </trkpt>
      <trkpt lat="42.86091" lon="0.40266">
        <ele>879</ele>
        <time>2021-08-20T19:57:11Z</time>
      </trkpt>
      <trkpt lat="42.86076" lon="0.40274">
        <ele>880</ele>
        <time>2021-08-20T19:57:14Z</time>
      </trkpt>
      <trkpt lat="42.86005" lon="0.4029">
        <ele>883</ele>
        <time>2021-08-20T19:57:27Z</time>
      </trkpt>
      <trkpt lat="42.85984" lon="0.40301">
        <ele>882</ele>
        <time>2021-08-20T19:57:31Z</time>
      </trkpt>
      <trkpt lat="42.85966" lon="0.40317">
        <ele>881</ele>
        <time>2021-08-20T19:57:35Z</time>
      </trkpt>
      <trkpt lat="42.85936" lon="0.40359">
        <ele>878</ele>
        <time>2021-08-20T19:57:42Z</time>
      </trkpt>
      <trkpt lat="42.85914" lon="0.40376">
        <ele>878</ele>
        <time>2021-08-20T19:57:47Z</time>
      </trkpt>
      <trkpt lat="42.85892" lon="0.40387">
        <ele>879</ele>
        <time>2021-08-20T19:57:51Z</time>
      </trkpt>
      <trkpt lat="42.85866" lon="0.40396">
        <ele>880</ele>
        <time>2021-08-20T19:57:56Z</time>
      </trkpt>
      <trkpt lat="42.85837" lon="0.40405">
        <ele>881</ele>
        <time>2021-08-20T19:58:01Z</time>
      </trkpt>
      <trkpt lat="42.85778" lon="0.40416">
        <ele>882</ele>
        <time>2021-08-20T19:58:12Z</time>
      </trkpt>
      <trkpt lat="42.85722" lon="0.40438">
        <ele>884</ele>
        <time>2021-08-20T19:58:22Z</time>
      </trkpt>
      <trkpt lat="42.8569" lon="0.40443">
        <ele>886</ele>
        <time>2021-08-20T19:58:28Z</time>
      </trkpt>
      <trkpt lat="42.8562" lon="0.40447">
        <ele>897</ele>
        <time>2021-08-20T19:58:40Z</time>
      </trkpt>
      <trkpt lat="42.85586" lon="0.40457">
        <ele>900</ele>
        <time>2021-08-20T19:58:46Z</time>
      </trkpt>
      <trkpt lat="42.85515" lon="0.40491">
        <ele>901</ele>
        <time>2021-08-20T19:59:00Z</time>
      </trkpt>
      <trkpt lat="42.85445" lon="0.40537">
        <ele>910</ele>
        <time>2021-08-20T19:59:14Z</time>
      </trkpt>
      <trkpt lat="42.85429" lon="0.40552">
        <ele>910</ele>
        <time>2021-08-20T19:59:17Z</time>
      </trkpt>
      <trkpt lat="42.85415" lon="0.40578">
        <ele>905</ele>
        <time>2021-08-20T19:59:21Z</time>
      </trkpt>
      <trkpt lat="42.85406" lon="0.40593">
        <ele>905</ele>
        <time>2021-08-20T19:59:24Z</time>
      </trkpt>
      <trkpt lat="42.8538" lon="0.40648">
        <ele>902</ele>
        <time>2021-08-20T19:59:32Z</time>
      </trkpt>
      <trkpt lat="42.85367" lon="0.40666">
        <ele>903</ele>
        <time>2021-08-20T19:59:36Z</time>
      </trkpt>
      <trkpt lat="42.85351" lon="0.40682">
        <ele>905</ele>
        <time>2021-08-20T19:59:39Z</time>
      </trkpt>
      <trkpt lat="42.85337" lon="0.40693">
        <ele>906</ele>
        <time>2021-08-20T19:59:42Z</time>
      </trkpt>
      <trkpt lat="42.85321" lon="0.40702">
        <ele>906</ele>
        <time>2021-08-20T19:59:45Z</time>
      </trkpt>
      <trkpt lat="42.85292" lon="0.40712">
        <ele>904</ele>
        <time>2021-08-20T19:59:51Z</time>
      </trkpt>
      <trkpt lat="42.85269" lon="0.40717">
        <ele>904</ele>
        <time>2021-08-20T19:59:55Z</time>
      </trkpt>
      <trkpt lat="42.85218" lon="0.40711">
        <ele>906</ele>
        <time>2021-08-20T20:00:04Z</time>
      </trkpt>
      <trkpt lat="42.85185" lon="0.40715">
        <ele>906</ele>
        <time>2021-08-20T20:00:10Z</time>
      </trkpt>
      <trkpt lat="42.85125" lon="0.4073">
        <ele>910</ele>
        <time>2021-08-20T20:00:21Z</time>
      </trkpt>
      <trkpt lat="42.8508" lon="0.4076">
        <ele>910</ele>
        <time>2021-08-20T20:00:29Z</time>
      </trkpt>
      <trkpt lat="42.8506" lon="0.40771">
        <ele>911</ele>
        <time>2021-08-20T20:00:33Z</time>
      </trkpt>
      <trkpt lat="42.85015" lon="0.40784">
        <ele>913</ele>
        <time>2021-08-20T20:00:41Z</time>
      </trkpt>
      <trkpt lat="42.85006" lon="0.40786">
        <ele>914</ele>
        <time>2021-08-20T20:00:43Z</time>
      </trkpt>
      <trkpt lat="42.84996" lon="0.40792">
        <ele>913</ele>
        <time>2021-08-20T20:00:45Z</time>
      </trkpt>
      <trkpt lat="42.8497" lon="0.40821">
        <ele>908</ele>
        <time>2021-08-20T20:00:51Z</time>
      </trkpt>
      <trkpt lat="42.84948" lon="0.40837">
        <ele>906</ele>
        <time>2021-08-20T20:00:55Z</time>
      </trkpt>
      <trkpt lat="42.84932" lon="0.40842">
        <ele>907</ele>
        <time>2021-08-20T20:00:58Z</time>
      </trkpt>
      <trkpt lat="42.84886" lon="0.40847">
        <ele>912</ele>
        <time>2021-08-20T20:01:07Z</time>
      </trkpt>
      <trkpt lat="42.84867" lon="0.40853">
        <ele>912</ele>
        <time>2021-08-20T20:01:10Z</time>
      </trkpt>
      <trkpt lat="42.84841" lon="0.40862">
        <ele>913</ele>
        <time>2021-08-20T20:01:15Z</time>
      </trkpt>
      <trkpt lat="42.84821" lon="0.40872">
        <ele>913</ele>
        <time>2021-08-20T20:01:19Z</time>
      </trkpt>
      <trkpt lat="42.84796" lon="0.4089">
        <ele>913</ele>
        <time>2021-08-20T20:01:24Z</time>
      </trkpt>
      <trkpt lat="42.84725" lon="0.40936">
        <ele>909</ele>
        <time>2021-08-20T20:01:38Z</time>
      </trkpt>
      <trkpt lat="42.84705" lon="0.40945">
        <ele>909</ele>
        <time>2021-08-20T20:01:41Z</time>
      </trkpt>
      <trkpt lat="42.84684" lon="0.40947">
        <ele>910</ele>
        <time>2021-08-20T20:01:45Z</time>
      </trkpt>
      <trkpt lat="42.84648" lon="0.40944">
        <ele>912</ele>
        <time>2021-08-20T20:01:52Z</time>
      </trkpt>
      <trkpt lat="42.84624" lon="0.40945">
        <ele>912</ele>
        <time>2021-08-20T20:01:56Z</time>
      </trkpt>
      <trkpt lat="42.84605" lon="0.40946">
        <ele>912</ele>
        <time>2021-08-20T20:01:59Z</time>
      </trkpt>
      <trkpt lat="42.84601" lon="0.40946">
        <ele>912</ele>
        <time>2021-08-20T20:02:00Z</time>
      </trkpt>
      <trkpt lat="42.84599" lon="0.40944">
        <ele>912</ele>
        <time>2021-08-20T20:02:00Z</time>
      </trkpt>
      <trkpt lat="42.84594" lon="0.40942">
        <ele>912</ele>
        <time>2021-08-20T20:02:01Z</time>
      </trkpt>
      <trkpt lat="42.84592" lon="0.40943">
        <ele>912</ele>
        <time>2021-08-20T20:02:02Z</time>
      </trkpt>
      <trkpt lat="42.8459" lon="0.40945">
        <ele>912</ele>
        <time>2021-08-20T20:02:02Z</time>
      </trkpt>
      <trkpt lat="42.84588" lon="0.40948">
        <ele>911</ele>
        <time>2021-08-20T20:02:03Z</time>
      </trkpt>
      <trkpt lat="42.84587" lon="0.40951">
        <ele>911</ele>
        <time>2021-08-20T20:02:03Z</time>
      </trkpt>
      <trkpt lat="42.84587" lon="0.40954">
        <ele>911</ele>
        <time>2021-08-20T20:02:03Z</time>
      </trkpt>
      <trkpt lat="42.84588" lon="0.40957">
        <ele>910</ele>
        <time>2021-08-20T20:02:04Z</time>
      </trkpt>
      <trkpt lat="42.84581" lon="0.40969">
        <ele>908</ele>
        <time>2021-08-20T20:02:06Z</time>
      </trkpt>
      <trkpt lat="42.84571" lon="0.40972">
        <ele>907</ele>
        <time>2021-08-20T20:02:08Z</time>
      </trkpt>
      <trkpt lat="42.84557" lon="0.40973">
        <ele>906</ele>
        <time>2021-08-20T20:02:10Z</time>
      </trkpt>
      <trkpt lat="42.84545" lon="0.40969">
        <ele>906</ele>
        <time>2021-08-20T20:02:12Z</time>
      </trkpt>
      <trkpt lat="42.84533" lon="0.40959">
        <ele>907</ele>
        <time>2021-08-20T20:02:15Z</time>
      </trkpt>
      <trkpt lat="42.84507" lon="0.4092">
        <ele>910</ele>
        <time>2021-08-20T20:02:22Z</time>
      </trkpt>
      <trkpt lat="42.84497" lon="0.40908">
        <ele>911</ele>
        <time>2021-08-20T20:02:24Z</time>
      </trkpt>
      <trkpt lat="42.84487" lon="0.40902">
        <ele>911</ele>
        <time>2021-08-20T20:02:26Z</time>
      </trkpt>
      <trkpt lat="42.84477" lon="0.40902">
        <ele>910</ele>
        <time>2021-08-20T20:02:28Z</time>
      </trkpt>
      <trkpt lat="42.84469" lon="0.40904">
        <ele>910</ele>
        <time>2021-08-20T20:02:29Z</time>
      </trkpt>
      <trkpt lat="42.84454" lon="0.40918">
        <ele>907</ele>
        <time>2021-08-20T20:02:33Z</time>
      </trkpt>
      <trkpt lat="42.84423" lon="0.40972">
        <ele>902</ele>
        <time>2021-08-20T20:02:41Z</time>
      </trkpt>
      <trkpt lat="42.84328" lon="0.41089">
        <ele>916</ele>
        <time>2021-08-20T20:03:04Z</time>
      </trkpt>
      <trkpt lat="42.84316" lon="0.41101">
        <ele>918</ele>
        <time>2021-08-20T20:03:07Z</time>
      </trkpt>
      <trkpt lat="42.84302" lon="0.41111">
        <ele>919</ele>
        <time>2021-08-20T20:03:10Z</time>
      </trkpt>
      <trkpt lat="42.84276" lon="0.41124">
        <ele>920</ele>
        <time>2021-08-20T20:03:15Z</time>
      </trkpt>
      <trkpt lat="42.84184" lon="0.41152">
        <ele>923</ele>
        <time>2021-08-20T20:03:31Z</time>
      </trkpt>
      <trkpt lat="42.84123" lon="0.41155">
        <ele>929</ele>
        <time>2021-08-20T20:03:42Z</time>
      </trkpt>
      <trkpt lat="42.841" lon="0.41153">
        <ele>931</ele>
        <time>2021-08-20T20:03:46Z</time>
      </trkpt>
      <trkpt lat="42.84056" lon="0.41138">
        <ele>931</ele>
        <time>2021-08-20T20:03:54Z</time>
      </trkpt>
      <trkpt lat="42.84007" lon="0.41126">
        <ele>932</ele>
        <time>2021-08-20T20:04:03Z</time>
      </trkpt>
      <trkpt lat="42.83986" lon="0.41125">
        <ele>932</ele>
        <time>2021-08-20T20:04:07Z</time>
      </trkpt>
      <trkpt lat="42.83966" lon="0.41131">
        <ele>933</ele>
        <time>2021-08-20T20:04:11Z</time>
      </trkpt>
      <trkpt lat="42.83953" lon="0.41142">
        <ele>936</ele>
        <time>2021-08-20T20:04:13Z</time>
      </trkpt>
      <trkpt lat="42.83919" lon="0.41163">
        <ele>941</ele>
        <time>2021-08-20T20:04:20Z</time>
      </trkpt>
      <trkpt lat="42.83901" lon="0.41171">
        <ele>944</ele>
        <time>2021-08-20T20:04:23Z</time>
      </trkpt>
      <trkpt lat="42.83882" lon="0.41176">
        <ele>946</ele>
        <time>2021-08-20T20:04:27Z</time>
      </trkpt>
      <trkpt lat="42.83828" lon="0.41184">
        <ele>949</ele>
        <time>2021-08-20T20:04:37Z</time>
      </trkpt>
      <trkpt lat="42.83813" lon="0.41184">
        <ele>949</ele>
        <time>2021-08-20T20:04:39Z</time>
      </trkpt>
      <trkpt lat="42.83775" lon="0.41167">
        <ele>941</ele>
        <time>2021-08-20T20:04:46Z</time>
      </trkpt>
      <trkpt lat="42.83765" lon="0.41166">
        <ele>941</ele>
        <time>2021-08-20T20:04:48Z</time>
      </trkpt>
      <trkpt lat="42.83753" lon="0.41167">
        <ele>941</ele>
        <time>2021-08-20T20:04:50Z</time>
      </trkpt>
      <trkpt lat="42.83738" lon="0.41172">
        <ele>941</ele>
        <time>2021-08-20T20:04:53Z</time>
      </trkpt>
      <trkpt lat="42.83694" lon="0.41199">
        <ele>946</ele>
        <time>2021-08-20T20:05:02Z</time>
      </trkpt>
      <trkpt lat="42.83612" lon="0.41233">
        <ele>949</ele>
        <time>2021-08-20T20:05:17Z</time>
      </trkpt>
      <trkpt lat="42.83547" lon="0.41267">
        <ele>953</ele>
        <time>2021-08-20T20:05:29Z</time>
      </trkpt>
      <trkpt lat="42.83512" lon="0.41291">
        <ele>954</ele>
        <time>2021-08-20T20:05:36Z</time>
      </trkpt>
      <trkpt lat="42.83451" lon="0.41323">
        <ele>959</ele>
        <time>2021-08-20T20:05:48Z</time>
      </trkpt>
      <trkpt lat="42.83365" lon="0.41352">
        <ele>962</ele>
        <time>2021-08-20T20:06:04Z</time>
      </trkpt>
      <trkpt lat="42.83314" lon="0.41372">
        <ele>964</ele>
        <time>2021-08-20T20:06:13Z</time>
      </trkpt>
      <trkpt lat="42.83303" lon="0.41375">
        <ele>965</ele>
        <time>2021-08-20T20:06:15Z</time>
      </trkpt>
      <trkpt lat="42.8329" lon="0.41374">
        <ele>964</ele>
        <time>2021-08-20T20:06:17Z</time>
      </trkpt>
      <trkpt lat="42.83245" lon="0.41365">
        <ele>961</ele>
        <time>2021-08-20T20:06:25Z</time>
      </trkpt>
      <trkpt lat="42.82991" lon="0.41312">
        <ele>952</ele>
        <time>2021-08-20T20:07:11Z</time>
      </trkpt>
      <trkpt lat="42.82966" lon="0.4131">
        <ele>952</ele>
        <time>2021-08-20T20:07:16Z</time>
      </trkpt>
      <trkpt lat="42.82947" lon="0.41313">
        <ele>953</ele>
        <time>2021-08-20T20:07:19Z</time>
      </trkpt>
      <trkpt lat="42.82828" lon="0.41343">
        <ele>956</ele>
        <time>2021-08-20T20:07:41Z</time>
      </trkpt>
      <trkpt lat="42.82753" lon="0.41367">
        <ele>965</ele>
        <time>2021-08-20T20:07:54Z</time>
      </trkpt>
      <trkpt lat="42.82692" lon="0.41394">
        <ele>975</ele>
        <time>2021-08-20T20:08:06Z</time>
      </trkpt>
      <trkpt lat="42.82627" lon="0.4141">
        <ele>979</ele>
        <time>2021-08-20T20:08:17Z</time>
      </trkpt>
      <trkpt lat="42.82598" lon="0.41409">
        <ele>977</ele>
        <time>2021-08-20T20:08:23Z</time>
      </trkpt>
      <trkpt lat="42.8259" lon="0.41411">
        <ele>977</ele>
        <time>2021-08-20T20:08:24Z</time>
      </trkpt>
      <trkpt lat="42.82583" lon="0.41418">
        <ele>978</ele>
        <time>2021-08-20T20:08:26Z</time>
      </trkpt>
      <trkpt lat="42.82575" lon="0.41458">
        <ele>987</ele>
        <time>2021-08-20T20:08:31Z</time>
      </trkpt>
      <trkpt lat="42.82571" lon="0.41466">
        <ele>988</ele>
        <time>2021-08-20T20:08:32Z</time>
      </trkpt>
      <trkpt lat="42.82565" lon="0.41473">
        <ele>990</ele>
        <time>2021-08-20T20:08:34Z</time>
      </trkpt>
      <trkpt lat="42.82535" lon="0.41498">
        <ele>995</ele>
        <time>2021-08-20T20:08:40Z</time>
      </trkpt>
      <trkpt lat="42.82523" lon="0.41507">
        <ele>997</ele>
        <time>2021-08-20T20:08:42Z</time>
      </trkpt>
      <trkpt lat="42.82516" lon="0.41509">
        <ele>998</ele>
        <time>2021-08-20T20:08:44Z</time>
      </trkpt>
      <trkpt lat="42.82511" lon="0.41508">
        <ele>998</ele>
        <time>2021-08-20T20:08:44Z</time>
      </trkpt>
      <trkpt lat="42.82503" lon="0.41502">
        <ele>996</ele>
        <time>2021-08-20T20:08:46Z</time>
      </trkpt>
      <trkpt lat="42.82488" lon="0.4148">
        <ele>994</ele>
        <time>2021-08-20T20:08:50Z</time>
      </trkpt>
      <trkpt lat="42.82477" lon="0.41471">
        <ele>993</ele>
        <time>2021-08-20T20:08:52Z</time>
      </trkpt>
      <trkpt lat="42.8247" lon="0.4147">
        <ele>993</ele>
        <time>2021-08-20T20:08:54Z</time>
      </trkpt>
      <trkpt lat="42.82426" lon="0.41476">
        <ele>998</ele>
        <time>2021-08-20T20:09:01Z</time>
      </trkpt>
      <trkpt lat="42.82406" lon="0.4148">
        <ele>998</ele>
        <time>2021-08-20T20:09:05Z</time>
      </trkpt>
      <trkpt lat="42.82395" lon="0.41484">
        <ele>998</ele>
        <time>2021-08-20T20:09:07Z</time>
      </trkpt>
      <trkpt lat="42.82385" lon="0.4149">
        <ele>998</ele>
        <time>2021-08-20T20:09:09Z</time>
      </trkpt>
      <trkpt lat="42.82364" lon="0.41512">
        <ele>1000</ele>
        <time>2021-08-20T20:09:14Z</time>
      </trkpt>
      <trkpt lat="42.82335" lon="0.41561">
        <ele>1008</ele>
        <time>2021-08-20T20:09:22Z</time>
      </trkpt>
      <trkpt lat="42.82325" lon="0.41575">
        <ele>1011</ele>
        <time>2021-08-20T20:09:24Z</time>
      </trkpt>
      <trkpt lat="42.82314" lon="0.41583">
        <ele>1012</ele>
        <time>2021-08-20T20:09:27Z</time>
      </trkpt>
      <trkpt lat="42.82216" lon="0.41654">
        <ele>1024</ele>
        <time>2021-08-20T20:09:46Z</time>
      </trkpt>
      <trkpt lat="42.8214" lon="0.41704">
        <ele>1031</ele>
        <time>2021-08-20T20:10:01Z</time>
      </trkpt>
      <trkpt lat="42.82041" lon="0.41762">
        <ele>1040</ele>
        <time>2021-08-20T20:10:21Z</time>
      </trkpt>
      <trkpt lat="42.82011" lon="0.41788">
        <ele>1045</ele>
        <time>2021-08-20T20:10:27Z</time>
      </trkpt>
      <trkpt lat="42.81985" lon="0.41808">
        <ele>1048</ele>
        <time>2021-08-20T20:10:32Z</time>
      </trkpt>
      <trkpt lat="42.81943" lon="0.41835">
        <ele>1052</ele>
        <time>2021-08-20T20:10:41Z</time>
      </trkpt>
      <trkpt lat="42.8193" lon="0.41849">
        <ele>1054</ele>
        <time>2021-08-20T20:10:43Z</time>
      </trkpt>
      <trkpt lat="42.81915" lon="0.41869">
        <ele>1059</ele>
        <time>2021-08-20T20:10:47Z</time>
      </trkpt>
      <trkpt lat="42.81904" lon="0.41878">
        <ele>1060</ele>
        <time>2021-08-20T20:10:49Z</time>
      </trkpt>
      <trkpt lat="42.81876" lon="0.41897">
        <ele>1063</ele>
        <time>2021-08-20T20:10:55Z</time>
      </trkpt>
      <trkpt lat="42.81841" lon="0.41913">
        <ele>1064</ele>
        <time>2021-08-20T20:11:02Z</time>
      </trkpt>
      <trkpt lat="42.81784" lon="0.41938">
        <ele>1070</ele>
        <time>2021-08-20T20:11:12Z</time>
      </trkpt>
      <trkpt lat="42.81702" lon="0.41977">
        <ele>1077</ele>
        <time>2021-08-20T20:11:28Z</time>
      </trkpt>
      <trkpt lat="42.81687" lon="0.41987">
        <ele>1078</ele>
        <time>2021-08-20T20:11:31Z</time>
      </trkpt>
      <trkpt lat="42.81653" lon="0.42018">
        <ele>1084</ele>
        <time>2021-08-20T20:11:38Z</time>
      </trkpt>
      <trkpt lat="42.81624" lon="0.42048">
        <ele>1089</ele>
        <time>2021-08-20T20:11:44Z</time>
      </trkpt>
      <trkpt lat="42.81602" lon="0.42077">
        <ele>1093</ele>
        <time>2021-08-20T20:11:50Z</time>
      </trkpt>
      <trkpt lat="42.81593" lon="0.42085">
        <ele>1093</ele>
        <time>2021-08-20T20:11:52Z</time>
      </trkpt>
      <trkpt lat="42.81541" lon="0.42106">
        <ele>1097</ele>
        <time>2021-08-20T20:12:01Z</time>
      </trkpt>
      <trkpt lat="42.81482" lon="0.42133">
        <ele>1101</ele>
        <time>2021-08-20T20:12:13Z</time>
      </trkpt>
      <trkpt lat="42.81454" lon="0.42152">
        <ele>1103</ele>
        <time>2021-08-20T20:12:18Z</time>
      </trkpt>
      <trkpt lat="42.8143" lon="0.42179">
        <ele>1106</ele>
        <time>2021-08-20T20:12:24Z</time>
      </trkpt>
      <trkpt lat="42.81419" lon="0.42195">
        <ele>1108</ele>
        <time>2021-08-20T20:12:26Z</time>
      </trkpt>
      <trkpt lat="42.81353" lon="0.42331">
        <ele>1127</ele>
        <time>2021-08-20T20:12:48Z</time>
      </trkpt>
      <trkpt lat="42.81343" lon="0.42346">
        <ele>1127</ele>
        <time>2021-08-20T20:12:50Z</time>
      </trkpt>
      <trkpt lat="42.81333" lon="0.42355">
        <ele>1127</ele>
        <time>2021-08-20T20:12:53Z</time>
      </trkpt>
      <trkpt lat="42.81323" lon="0.42359">
        <ele>1129</ele>
        <time>2021-08-20T20:12:54Z</time>
      </trkpt>
      <trkpt lat="42.81314" lon="0.42361">
        <ele>1130</ele>
        <time>2021-08-20T20:12:56Z</time>
      </trkpt>
      <trkpt lat="42.81305" lon="0.42358">
        <ele>1130</ele>
        <time>2021-08-20T20:12:58Z</time>
      </trkpt>
      <trkpt lat="42.81238" lon="0.42323">
        <ele>1132</ele>
        <time>2021-08-20T20:13:10Z</time>
      </trkpt>
      <trkpt lat="42.81136" lon="0.42278">
        <ele>1147</ele>
        <time>2021-08-20T20:13:30Z</time>
      </trkpt>
      <trkpt lat="42.81116" lon="0.42265">
        <ele>1149</ele>
        <time>2021-08-20T20:13:33Z</time>
      </trkpt>
      <trkpt lat="42.8103" lon="0.42199">
        <ele>1154</ele>
        <time>2021-08-20T20:13:51Z</time>
      </trkpt>
      <trkpt lat="42.81009" lon="0.42186">
        <ele>1155</ele>
        <time>2021-08-20T20:13:55Z</time>
      </trkpt>
      <trkpt lat="42.80994" lon="0.4218">
        <ele>1157</ele>
        <time>2021-08-20T20:13:58Z</time>
      </trkpt>
      <trkpt lat="42.80978" lon="0.42177">
        <ele>1159</ele>
        <time>2021-08-20T20:14:01Z</time>
      </trkpt>
      <trkpt lat="42.80937" lon="0.42174">
        <ele>1166</ele>
        <time>2021-08-20T20:14:08Z</time>
      </trkpt>
      <trkpt lat="42.8092" lon="0.4217">
        <ele>1167</ele>
        <time>2021-08-20T20:14:11Z</time>
      </trkpt>
      <trkpt lat="42.80913" lon="0.42164">
        <ele>1167</ele>
        <time>2021-08-20T20:14:13Z</time>
      </trkpt>
      <trkpt lat="42.80908" lon="0.42157">
        <ele>1166</ele>
        <time>2021-08-20T20:14:14Z</time>
      </trkpt>
      <trkpt lat="42.80897" lon="0.42134">
        <ele>1161</ele>
        <time>2021-08-20T20:14:17Z</time>
      </trkpt>
      <trkpt lat="42.80892" lon="0.4213">
        <ele>1161</ele>
        <time>2021-08-20T20:14:19Z</time>
      </trkpt>
      <trkpt lat="42.80884" lon="0.42132">
        <ele>1162</ele>
        <time>2021-08-20T20:14:20Z</time>
      </trkpt>
      <trkpt lat="42.8088" lon="0.42135">
        <ele>1164</ele>
        <time>2021-08-20T20:14:21Z</time>
      </trkpt>
      <trkpt lat="42.80876" lon="0.42145">
        <ele>1167</ele>
        <time>2021-08-20T20:14:22Z</time>
      </trkpt>
      <trkpt lat="42.80877" lon="0.42152">
        <ele>1169</ele>
        <time>2021-08-20T20:14:23Z</time>
      </trkpt>
      <trkpt lat="42.80879" lon="0.4216">
        <ele>1171</ele>
        <time>2021-08-20T20:14:24Z</time>
      </trkpt>
      <trkpt lat="42.80889" lon="0.42174">
        <ele>1173</ele>
        <time>2021-08-20T20:14:27Z</time>
      </trkpt>
      <trkpt lat="42.8097" lon="0.42244">
        <ele>1180</ele>
        <time>2021-08-20T20:14:44Z</time>
      </trkpt>
      <trkpt lat="42.80986" lon="0.42265">
        <ele>1181</ele>
        <time>2021-08-20T20:14:48Z</time>
      </trkpt>
      <trkpt lat="42.81026" lon="0.42351">
        <ele>1190</ele>
        <time>2021-08-20T20:15:01Z</time>
      </trkpt>
      <trkpt lat="42.81057" lon="0.42411">
        <ele>1194</ele>
        <time>2021-08-20T20:15:11Z</time>
      </trkpt>
      <trkpt lat="42.81065" lon="0.42431">
        <ele>1196</ele>
        <time>2021-08-20T20:15:14Z</time>
      </trkpt>
      <trkpt lat="42.81067" lon="0.42446">
        <ele>1198</ele>
        <time>2021-08-20T20:15:16Z</time>
      </trkpt>
      <trkpt lat="42.81067" lon="0.42479">
        <ele>1205</ele>
        <time>2021-08-20T20:15:20Z</time>
      </trkpt>
      <trkpt lat="42.8107" lon="0.4249">
        <ele>1207</ele>
        <time>2021-08-20T20:15:22Z</time>
      </trkpt>
      <trkpt lat="42.81074" lon="0.42499">
        <ele>1208</ele>
        <time>2021-08-20T20:15:23Z</time>
      </trkpt>
      <trkpt lat="42.8108" lon="0.42506">
        <ele>1208</ele>
        <time>2021-08-20T20:15:24Z</time>
      </trkpt>
      <trkpt lat="42.81092" lon="0.42512">
        <ele>1207</ele>
        <time>2021-08-20T20:15:27Z</time>
      </trkpt>
      <trkpt lat="42.81124" lon="0.4252">
        <ele>1203</ele>
        <time>2021-08-20T20:15:32Z</time>
      </trkpt>
      <trkpt lat="42.81134" lon="0.42528">
        <ele>1202</ele>
        <time>2021-08-20T20:15:34Z</time>
      </trkpt>
      <trkpt lat="42.81149" lon="0.42544">
        <ele>1203</ele>
        <time>2021-08-20T20:15:38Z</time>
      </trkpt>
      <trkpt lat="42.81159" lon="0.42563">
        <ele>1205</ele>
        <time>2021-08-20T20:15:41Z</time>
      </trkpt>
      <trkpt lat="42.81169" lon="0.42589">
        <ele>1209</ele>
        <time>2021-08-20T20:15:45Z</time>
      </trkpt>
      <trkpt lat="42.81175" lon="0.42612">
        <ele>1212</ele>
        <time>2021-08-20T20:15:48Z</time>
      </trkpt>
      <trkpt lat="42.81184" lon="0.42665">
        <ele>1220</ele>
        <time>2021-08-20T20:15:55Z</time>
      </trkpt>
      <trkpt lat="42.81189" lon="0.42684">
        <ele>1222</ele>
        <time>2021-08-20T20:15:58Z</time>
      </trkpt>
      <trkpt lat="42.81195" lon="0.42699">
        <ele>1224</ele>
        <time>2021-08-20T20:16:00Z</time>
      </trkpt>
      <trkpt lat="42.81203" lon="0.42714">
        <ele>1225</ele>
        <time>2021-08-20T20:16:02Z</time>
      </trkpt>
      <trkpt lat="42.81242" lon="0.42769">
        <ele>1229</ele>
        <time>2021-08-20T20:16:12Z</time>
      </trkpt>
      <trkpt lat="42.81253" lon="0.42779">
        <ele>1229</ele>
        <time>2021-08-20T20:16:15Z</time>
      </trkpt>
      <trkpt lat="42.81272" lon="0.42789">
        <ele>1228</ele>
        <time>2021-08-20T20:16:18Z</time>
      </trkpt>
      <trkpt lat="42.81295" lon="0.42791">
        <ele>1226</ele>
        <time>2021-08-20T20:16:22Z</time>
      </trkpt>
      <trkpt lat="42.81301" lon="0.42794">
        <ele>1225</ele>
        <time>2021-08-20T20:16:23Z</time>
      </trkpt>
      <trkpt lat="42.81306" lon="0.428">
        <ele>1226</ele>
        <time>2021-08-20T20:16:25Z</time>
      </trkpt>
      <trkpt lat="42.8131" lon="0.42813">
        <ele>1229</ele>
        <time>2021-08-20T20:16:27Z</time>
      </trkpt>
      <trkpt lat="42.8131" lon="0.42821">
        <ele>1230</ele>
        <time>2021-08-20T20:16:28Z</time>
      </trkpt>
      <trkpt lat="42.81305" lon="0.42834">
        <ele>1234</ele>
        <time>2021-08-20T20:16:29Z</time>
      </trkpt>
      <trkpt lat="42.813" lon="0.42838">
        <ele>1236</ele>
        <time>2021-08-20T20:16:31Z</time>
      </trkpt>
      <trkpt lat="42.81274" lon="0.4284">
        <ele>1240</ele>
        <time>2021-08-20T20:16:35Z</time>
      </trkpt>
      <trkpt lat="42.81249" lon="0.42835">
        <ele>1242</ele>
        <time>2021-08-20T20:16:40Z</time>
      </trkpt>
      <trkpt lat="42.8118" lon="0.42801">
        <ele>1248</ele>
        <time>2021-08-20T20:16:53Z</time>
      </trkpt>
      <trkpt lat="42.81113" lon="0.42751">
        <ele>1251</ele>
        <time>2021-08-20T20:17:06Z</time>
      </trkpt>
      <trkpt lat="42.81081" lon="0.42733">
        <ele>1255</ele>
        <time>2021-08-20T20:17:12Z</time>
      </trkpt>
      <trkpt lat="42.8104" lon="0.42718">
        <ele>1262</ele>
        <time>2021-08-20T20:17:20Z</time>
      </trkpt>
      <trkpt lat="42.8103" lon="0.42712">
        <ele>1264</ele>
        <time>2021-08-20T20:17:22Z</time>
      </trkpt>
      <trkpt lat="42.80972" lon="0.42666">
        <ele>1269</ele>
        <time>2021-08-20T20:17:34Z</time>
      </trkpt>
      <trkpt lat="42.80938" lon="0.42647">
        <ele>1275</ele>
        <time>2021-08-20T20:17:40Z</time>
      </trkpt>
      <trkpt lat="42.80907" lon="0.42611">
        <ele>1276</ele>
        <time>2021-08-20T20:17:48Z</time>
      </trkpt>
      <trkpt lat="42.80881" lon="0.4257">
        <ele>1273</ele>
        <time>2021-08-20T20:17:55Z</time>
      </trkpt>
      <trkpt lat="42.80871" lon="0.4256">
        <ele>1274</ele>
        <time>2021-08-20T20:17:57Z</time>
      </trkpt>
      <trkpt lat="42.80847" lon="0.42543">
        <ele>1276</ele>
        <time>2021-08-20T20:18:02Z</time>
      </trkpt>
      <trkpt lat="42.80815" lon="0.4253">
        <ele>1280</ele>
        <time>2021-08-20T20:18:08Z</time>
      </trkpt>
      <trkpt lat="42.80711" lon="0.42491">
        <ele>1289</ele>
        <time>2021-08-20T20:18:27Z</time>
      </trkpt>
      <trkpt lat="42.80638" lon="0.42477">
        <ele>1296</ele>
        <time>2021-08-20T20:18:40Z</time>
      </trkpt>
      <trkpt lat="42.80582" lon="0.42471">
        <ele>1302</ele>
        <time>2021-08-20T20:18:50Z</time>
      </trkpt>
      <trkpt lat="42.80492" lon="0.42468">
        <ele>1312</ele>
        <time>2021-08-20T20:19:06Z</time>
      </trkpt>
      <trkpt lat="42.80424" lon="0.42458">
        <ele>1314</ele>
        <time>2021-08-20T20:19:18Z</time>
      </trkpt>
      <trkpt lat="42.80407" lon="0.4246">
        <ele>1314</ele>
        <time>2021-08-20T20:19:21Z</time>
      </trkpt>
      <trkpt lat="42.8037" lon="0.42474">
        <ele>1316</ele>
        <time>2021-08-20T20:19:28Z</time>
      </trkpt>
      <trkpt lat="42.80339" lon="0.42493">
        <ele>1322</ele>
        <time>2021-08-20T20:19:34Z</time>
      </trkpt>
      <trkpt lat="42.80262" lon="0.42553">
        <ele>1326</ele>
        <time>2021-08-20T20:19:50Z</time>
      </trkpt>
      <trkpt lat="42.80253" lon="0.42577">
        <ele>1330</ele>
        <time>2021-08-20T20:19:53Z</time>
      </trkpt>
      <trkpt lat="42.80242" lon="0.42623">
        <ele>1340</ele>
        <time>2021-08-20T20:20:00Z</time>
      </trkpt>
      <trkpt lat="42.80233" lon="0.42655">
        <ele>1346</ele>
        <time>2021-08-20T20:20:04Z</time>
      </trkpt>
      <trkpt lat="42.80221" lon="0.42688">
        <ele>1351</ele>
        <time>2021-08-20T20:20:09Z</time>
      </trkpt>
      <trkpt lat="42.80214" lon="0.42727">
        <ele>1356</ele>
        <time>2021-08-20T20:20:14Z</time>
      </trkpt>
      <trkpt lat="42.80208" lon="0.42785">
        <ele>1362</ele>
        <time>2021-08-20T20:20:22Z</time>
      </trkpt>
      <trkpt lat="42.80204" lon="0.42805">
        <ele>1363</ele>
        <time>2021-08-20T20:20:25Z</time>
      </trkpt>
      <trkpt lat="42.80189" lon="0.42855">
        <ele>1363</ele>
        <time>2021-08-20T20:20:32Z</time>
      </trkpt>
      <trkpt lat="42.80182" lon="0.42898">
        <ele>1365</ele>
        <time>2021-08-20T20:20:37Z</time>
      </trkpt>
      <trkpt lat="42.80177" lon="0.42959">
        <ele>1369</ele>
        <time>2021-08-20T20:20:45Z</time>
      </trkpt>
      <trkpt lat="42.8018" lon="0.43005">
        <ele>1374</ele>
        <time>2021-08-20T20:20:51Z</time>
      </trkpt>
      <trkpt lat="42.8018" lon="0.43021">
        <ele>1374</ele>
        <time>2021-08-20T20:20:54Z</time>
      </trkpt>
      <trkpt lat="42.80178" lon="0.43039">
        <ele>1374</ele>
        <time>2021-08-20T20:20:56Z</time>
      </trkpt>
      <trkpt lat="42.80166" lon="0.43083">
        <ele>1373</ele>
        <time>2021-08-20T20:21:02Z</time>
      </trkpt>
      <trkpt lat="42.80153" lon="0.43116">
        <ele>1377</ele>
        <time>2021-08-20T20:21:07Z</time>
      </trkpt>
      <trkpt lat="42.80143" lon="0.4316">
        <ele>1379</ele>
        <time>2021-08-20T20:21:13Z</time>
      </trkpt>
      <trkpt lat="42.80139" lon="0.432">
        <ele>1380</ele>
        <time>2021-08-20T20:21:18Z</time>
      </trkpt>
      <trkpt lat="42.80139" lon="0.43276">
        <ele>1384</ele>
        <time>2021-08-20T20:21:28Z</time>
      </trkpt>
      <trkpt lat="42.80135" lon="0.43331">
        <ele>1385</ele>
        <time>2021-08-20T20:21:35Z</time>
      </trkpt>
      <trkpt lat="42.80117" lon="0.43446">
        <ele>1389</ele>
        <time>2021-08-20T20:21:51Z</time>
      </trkpt>
      <trkpt lat="42.80107" lon="0.43531">
        <ele>1393</ele>
        <time>2021-08-20T20:22:02Z</time>
      </trkpt>
      <trkpt lat="42.80086" lon="0.43642">
        <ele>1394</ele>
        <time>2021-08-20T20:22:17Z</time>
      </trkpt>
      <trkpt lat="42.80085" lon="0.4367">
        <ele>1396</ele>
        <time>2021-08-20T20:22:21Z</time>
      </trkpt>
      <trkpt lat="42.8009" lon="0.43749">
        <ele>1398</ele>
        <time>2021-08-20T20:22:31Z</time>
      </trkpt>
      <trkpt lat="42.80091" lon="0.43871">
        <ele>1406</ele>
        <time>2021-08-20T20:22:47Z</time>
      </trkpt>
      <trkpt lat="42.80097" lon="0.43961">
        <ele>1413</ele>
        <time>2021-08-20T20:22:59Z</time>
      </trkpt>
      <trkpt lat="42.80107" lon="0.44018">
        <ele>1420</ele>
        <time>2021-08-20T20:23:06Z</time>
      </trkpt>
      <trkpt lat="42.80109" lon="0.44041">
        <ele>1422</ele>
        <time>2021-08-20T20:23:09Z</time>
      </trkpt>
      <trkpt lat="42.8011" lon="0.44109">
        <ele>1424</ele>
        <time>2021-08-20T20:23:18Z</time>
      </trkpt>
      <trkpt lat="42.80114" lon="0.44128">
        <ele>1425</ele>
        <time>2021-08-20T20:23:21Z</time>
      </trkpt>
      <trkpt lat="42.8012" lon="0.44142">
        <ele>1427</ele>
        <time>2021-08-20T20:23:23Z</time>
      </trkpt>
      <trkpt lat="42.80138" lon="0.44172">
        <ele>1432</ele>
        <time>2021-08-20T20:23:28Z</time>
      </trkpt>
      <trkpt lat="42.80147" lon="0.44203">
        <ele>1435</ele>
        <time>2021-08-20T20:23:32Z</time>
      </trkpt>
      <trkpt lat="42.80156" lon="0.44272">
        <ele>1439</ele>
        <time>2021-08-20T20:23:41Z</time>
      </trkpt>
      <trkpt lat="42.80161" lon="0.44298">
        <ele>1441</ele>
        <time>2021-08-20T20:23:45Z</time>
      </trkpt>
      <trkpt lat="42.80171" lon="0.44326">
        <ele>1445</ele>
        <time>2021-08-20T20:23:49Z</time>
      </trkpt>
      <trkpt lat="42.80209" lon="0.44396">
        <ele>1455</ele>
        <time>2021-08-20T20:24:00Z</time>
      </trkpt>
      <trkpt lat="42.80212" lon="0.4441">
        <ele>1455</ele>
        <time>2021-08-20T20:24:02Z</time>
      </trkpt>
      <trkpt lat="42.80211" lon="0.44423">
        <ele>1453</ele>
        <time>2021-08-20T20:24:04Z</time>
      </trkpt>
      <trkpt lat="42.80205" lon="0.44451">
        <ele>1450</ele>
        <time>2021-08-20T20:24:08Z</time>
      </trkpt>
      <trkpt lat="42.80203" lon="0.44474">
        <ele>1448</ele>
        <time>2021-08-20T20:24:11Z</time>
      </trkpt>
      <trkpt lat="42.80202" lon="0.44549">
        <ele>1452</ele>
        <time>2021-08-20T20:24:21Z</time>
      </trkpt>
      <trkpt lat="42.80198" lon="0.44612">
        <ele>1459</ele>
        <time>2021-08-20T20:24:29Z</time>
      </trkpt>
      <trkpt lat="42.80196" lon="0.44684">
        <ele>1466</ele>
        <time>2021-08-20T20:24:38Z</time>
      </trkpt>
      <trkpt lat="42.80182" lon="0.44882">
        <ele>1478</ele>
        <time>2021-08-20T20:25:04Z</time>
      </trkpt>
      <trkpt lat="42.80181" lon="0.44903">
        <ele>1479</ele>
        <time>2021-08-20T20:25:07Z</time>
      </trkpt>
      <trkpt lat="42.80183" lon="0.44929">
        <ele>1482</ele>
        <time>2021-08-20T20:25:10Z</time>
      </trkpt>
      <trkpt lat="42.80191" lon="0.44968">
        <ele>1485</ele>
        <time>2021-08-20T20:25:16Z</time>
      </trkpt>
      <trkpt lat="42.80214" lon="0.45039">
        <ele>1498</ele>
        <time>2021-08-20T20:25:26Z</time>
      </trkpt>
      <trkpt lat="42.80219" lon="0.45056">
        <ele>1500</ele>
        <time>2021-08-20T20:25:28Z</time>
      </trkpt>
      <trkpt lat="42.80231" lon="0.45141">
        <ele>1506</ele>
        <time>2021-08-20T20:25:40Z</time>
      </trkpt>
      <trkpt lat="42.80231" lon="0.4521">
        <ele>1508</ele>
        <time>2021-08-20T20:25:49Z</time>
      </trkpt>
      <trkpt lat="42.80235" lon="0.45257">
        <ele>1511</ele>
        <time>2021-08-20T20:25:55Z</time>
      </trkpt>
      <trkpt lat="42.80231" lon="0.45277">
        <ele>1513</ele>
        <time>2021-08-20T20:25:57Z</time>
      </trkpt>
      <trkpt lat="42.8021" lon="0.45321">
        <ele>1512</ele>
        <time>2021-08-20T20:26:04Z</time>
      </trkpt>
      <trkpt lat="42.80206" lon="0.45336">
        <ele>1512</ele>
        <time>2021-08-20T20:26:06Z</time>
      </trkpt>
      <trkpt lat="42.80203" lon="0.45381">
        <ele>1516</ele>
        <time>2021-08-20T20:26:12Z</time>
      </trkpt>
      <trkpt lat="42.80203" lon="0.45444">
        <ele>1524</ele>
        <time>2021-08-20T20:26:20Z</time>
      </trkpt>
    </trkseg>
  </trk>
</gpx>